Flight Details

Back

 FLIGHT DETAILS

Pilot: GLD1793 Tiago I. Aircraft: ATCCOM.ATC_NAME_BEECHCR Distance: 40NM
From: MYER To: MYCA Duration: 0.37
Validation: Valid Tipo: Charter Tail Number: PT-GLD
ZFW: 4324 Block Fuel/Init FOB 131flight_details.php/108 Flight Fuel 131
Passengers: 5 Cargo: 0 Alternate: MYNN
Departure Time: 1531 Cruise Speed: 193 Flight Level: FL300
Flight Type: IFR Aircraft Type: BE58 Weight Unit: Kg
Date: 03/05/2026 Comments: GOLD ACARS Network: VATSIM
Crash: No Validator Comments: Rating 90

 ROUTE

ROUTE DCT MUVOD DCT
REMARKS OPR/GOLD VIRTUAL AIRLINES PER/C RMK/FROM MYER RMK/PIC GLD1793

 FLIGHT PENALTIES

Crash OK Beacon Lights off with engine on OK Speed above 250KIAS below 10.000ft OK
Landing Lights OFF below 10.000ft OK Landing Lights ON above 10.000ft OK Stall OK
Overspeed OK Pause OK Refuel OK
Slew OK Taxi Lights OFF during taxi OK Land Lights OFF during take off OK
Landing Lights OFF during landing OK Landed in not planned airfield OK Taxi speed above 25 kt OK
Incorrect QNH during take off OK Incorrect QNH during landing Fault

 LANDING ANALYSIS

Wind: 222º/6 kt Heading: 288
VS: -56 ft/min IAS: 78 kt
Gforce: 1.0192 G Bank: 0.72
Pitch 4.85 Flaps 100
Nav Lights ON Landing Lights ON
Beacon Lights ON Strobe Lights ON

 FLIGHT MAP

 FIGHT VERTICAL PROFILE

 FLIGHT MAIN EVENTS

DATEEVENTIASALTITUDE
2026-05-03 15:31:15 GOLD ACARS VERSION 3.3.7.000
2026-05-03 15:31:15 BOARDING0-56
2026-05-03 15:32:19 BCN LIGHTS ON0-56
2026-05-03 15:32:20 NAV LIGHTS ON0-56
2026-05-03 15:32:21 STB LIGHTS ON0-56
2026-05-03 15:33:16 STARTING ENGINE 10-56
2026-05-03 15:34:48 TAXI LIGHTS ON0-56
2026-05-03 15:34:49 LND LIGHTS ON0-56
2026-05-03 15:35:17 STARTING ENGINE 20-56
2026-05-03 15:36:20 TAXI TO THE RWY0-56
2026-05-03 15:37:17 FLAP 50%2-58
2026-05-03 15:37:47 CLIMBING104-28
2026-05-03 15:37:55 GEAR UP108131
2026-05-03 15:38:02 CRUISE113333
2026-05-03 15:38:04 CLIMBING116346
2026-05-03 15:38:04 FLAP 0%116351
2026-05-03 15:38:35 AP ENGAGED1401064
2026-05-03 15:39:18 CRUISE1531998
2026-05-03 15:45:29 LANDING2071386
2026-05-03 15:48:23 CLIMBING177168
2026-05-03 15:48:46 CRUISE162438
2026-05-03 15:49:17 CLIMBING134576
2026-05-03 15:49:21 CRUISE131601
2026-05-03 15:49:39 CLIMBING124688
2026-05-03 15:49:41 AP DISENGAGED124707
2026-05-03 15:49:49 CRUISE123747
2026-05-03 15:49:53 LANDING127754
2026-05-03 15:49:55 FLAP 50%129740
2026-05-03 15:49:55 GEAR DOWN130734
2026-05-03 15:50:22 FLAP 100%120330
2026-05-03 15:51:01 LANDED AIRPORT [MYCA]80-57
2026-05-03 15:51:01 LANDED - VS: -56 ft/min78-58
2026-05-03 15:51:01 LANDING WITH INCORRECT QNH - SET:1013 LOCAL: 101678-58
2026-05-03 15:51:18 TAXI TO THE GATE29-69
2026-05-03 15:52:02 AT THE GATE0-69
2026-05-03 15:53:05 NAV LIGHTS OFF0-69
2026-05-03 15:53:10 TAXI LIGHTS OFF0-69
2026-05-03 15:53:12 LND LIGHTS OFF0-69
2026-05-03 15:53:17 STOPPING ENGINE 20-69
2026-05-03 15:53:19 STOPPING ENGINE 10-69
2026-05-03 15:53:33 STB LIGHTS OFF0-69
2026-05-03 15:53:33 FLIGHT FINISHED0-69
2026-05-03 15:31:15 GOLD ACARS VERSION 3.3.7.000
2026-05-03 15:31:15 BOARDING0-56
2026-05-03 15:32:19 BCN LIGHTS ON0-56
2026-05-03 15:32:20 NAV LIGHTS ON0-56
2026-05-03 15:32:21 STB LIGHTS ON0-56
2026-05-03 15:33:16 STARTING ENGINE 10-56
2026-05-03 15:34:48 TAXI LIGHTS ON0-56
2026-05-03 15:34:49 LND LIGHTS ON0-56
2026-05-03 15:35:17 STARTING ENGINE 20-56
2026-05-03 15:36:20 TAXI TO THE RWY0-56
2026-05-03 15:37:17 FLAP 50%2-58
2026-05-03 15:37:47 CLIMBING104-28
2026-05-03 15:37:55 GEAR UP108131
2026-05-03 15:38:02 CRUISE113333
2026-05-03 15:38:04 CLIMBING116346
2026-05-03 15:38:04 FLAP 0%116351
2026-05-03 15:38:35 AP ENGAGED1401064
2026-05-03 15:39:18 CRUISE1531998
2026-05-03 15:45:29 LANDING2071386
2026-05-03 15:48:23 CLIMBING177168
2026-05-03 15:48:46 CRUISE162438
2026-05-03 15:49:17 CLIMBING134576
2026-05-03 15:49:21 CRUISE131601
2026-05-03 15:49:39 CLIMBING124688
2026-05-03 15:49:41 AP DISENGAGED124707
2026-05-03 15:49:49 CRUISE123747
2026-05-03 15:49:53 LANDING127754
2026-05-03 15:49:55 FLAP 50%129740
2026-05-03 15:49:55 GEAR DOWN130734
2026-05-03 15:50:22 FLAP 100%120330
2026-05-03 15:51:01 LANDED AIRPORT [MYCA]80-57
2026-05-03 15:51:01 LANDED - VS: -56 ft/min78-58
2026-05-03 15:51:01 LANDING WITH INCORRECT QNH - SET:1013 LOCAL: 101678-58
2026-05-03 15:51:18 TAXI TO THE GATE29-69
2026-05-03 15:52:02 AT THE GATE0-69
2026-05-03 15:53:05 NAV LIGHTS OFF0-69
2026-05-03 15:53:10 TAXI LIGHTS OFF0-69
2026-05-03 15:53:12 LND LIGHTS OFF0-69
2026-05-03 15:53:17 STOPPING ENGINE 20-69
2026-05-03 15:53:19 STOPPING ENGINE 10-69
2026-05-03 15:53:33 STB LIGHTS OFF0-69
2026-05-03 15:53:33 FLIGHT FINISHED0-69
2026-05-03 15:31:15 GOLD ACARS VERSION 3.3.7.000
2026-05-03 15:31:15 BOARDING0-56
2026-05-03 15:32:19 BCN LIGHTS ON0-56
2026-05-03 15:32:20 NAV LIGHTS ON0-56
2026-05-03 15:32:21 STB LIGHTS ON0-56
2026-05-03 15:33:16 STARTING ENGINE 10-56
2026-05-03 15:34:48 TAXI LIGHTS ON0-56
2026-05-03 15:34:49 LND LIGHTS ON0-56
2026-05-03 15:35:17 STARTING ENGINE 20-56
2026-05-03 15:36:20 TAXI TO THE RWY0-56
2026-05-03 15:37:17 FLAP 50%2-58
2026-05-03 15:37:47 CLIMBING104-28
2026-05-03 15:37:55 GEAR UP108131
2026-05-03 15:38:02 CRUISE113333
2026-05-03 15:38:04 CLIMBING116346
2026-05-03 15:38:04 FLAP 0%116351
2026-05-03 15:38:35 AP ENGAGED1401064
2026-05-03 15:39:18 CRUISE1531998
2026-05-03 15:45:29 LANDING2071386
2026-05-03 15:48:23 CLIMBING177168
2026-05-03 15:48:46 CRUISE162438
2026-05-03 15:49:17 CLIMBING134576
2026-05-03 15:49:21 CRUISE131601
2026-05-03 15:49:39 CLIMBING124688
2026-05-03 15:49:41 AP DISENGAGED124707
2026-05-03 15:49:49 CRUISE123747
2026-05-03 15:49:53 LANDING127754
2026-05-03 15:49:55 FLAP 50%129740
2026-05-03 15:49:55 GEAR DOWN130734
2026-05-03 15:50:22 FLAP 100%120330
2026-05-03 15:51:01 LANDED AIRPORT [MYCA]80-57
2026-05-03 15:51:01 LANDED - VS: -56 ft/min78-58
2026-05-03 15:51:01 LANDING WITH INCORRECT QNH - SET:1013 LOCAL: 101678-58
2026-05-03 15:51:18 TAXI TO THE GATE29-69
2026-05-03 15:52:02 AT THE GATE0-69
2026-05-03 15:53:05 NAV LIGHTS OFF0-69
2026-05-03 15:53:10 TAXI LIGHTS OFF0-69
2026-05-03 15:53:12 LND LIGHTS OFF0-69
2026-05-03 15:53:17 STOPPING ENGINE 20-69
2026-05-03 15:53:19 STOPPING ENGINE 10-69
2026-05-03 15:53:33 STB LIGHTS OFF0-69
2026-05-03 15:53:33 FLIGHT FINISHED0-69
2026-05-03 15:31:15 GOLD ACARS VERSION 3.3.7.000
2026-05-03 15:31:15 BOARDING0-56
2026-05-03 15:32:19 BCN LIGHTS ON0-56
2026-05-03 15:32:20 NAV LIGHTS ON0-56
2026-05-03 15:32:21 STB LIGHTS ON0-56
2026-05-03 15:33:16 STARTING ENGINE 10-56
2026-05-03 15:34:48 TAXI LIGHTS ON0-56
2026-05-03 15:34:49 LND LIGHTS ON0-56
2026-05-03 15:35:17 STARTING ENGINE 20-56
2026-05-03 15:36:20 TAXI TO THE RWY0-56
2026-05-03 15:37:17 FLAP 50%2-58
2026-05-03 15:37:47 CLIMBING104-28
2026-05-03 15:37:55 GEAR UP108131
2026-05-03 15:38:02 CRUISE113333
2026-05-03 15:38:04 CLIMBING116346
2026-05-03 15:38:04 FLAP 0%116351
2026-05-03 15:38:35 AP ENGAGED1401064
2026-05-03 15:39:18 CRUISE1531998
2026-05-03 15:45:29 LANDING2071386
2026-05-03 15:48:23 CLIMBING177168
2026-05-03 15:48:46 CRUISE162438
2026-05-03 15:49:17 CLIMBING134576
2026-05-03 15:49:21 CRUISE131601
2026-05-03 15:49:39 CLIMBING124688
2026-05-03 15:49:41 AP DISENGAGED124707
2026-05-03 15:49:49 CRUISE123747
2026-05-03 15:49:53 LANDING127754
2026-05-03 15:49:55 FLAP 50%129740
2026-05-03 15:49:55 GEAR DOWN130734
2026-05-03 15:50:22 FLAP 100%120330
2026-05-03 15:51:01 LANDED AIRPORT [MYCA]80-57
2026-05-03 15:51:01 LANDED - VS: -56 ft/min78-58
2026-05-03 15:51:01 LANDING WITH INCORRECT QNH - SET:1013 LOCAL: 101678-58
2026-05-03 15:51:18 TAXI TO THE GATE29-69
2026-05-03 15:52:02 AT THE GATE0-69
2026-05-03 15:53:05 NAV LIGHTS OFF0-69
2026-05-03 15:53:10 TAXI LIGHTS OFF0-69
2026-05-03 15:53:12 LND LIGHTS OFF0-69
2026-05-03 15:53:17 STOPPING ENGINE 20-69
2026-05-03 15:53:19 STOPPING ENGINE 10-69
2026-05-03 15:53:33 STB LIGHTS OFF0-69
2026-05-03 15:53:33 FLIGHT FINISHED0-69
2026-05-03 15:31:15 GOLD ACARS VERSION 3.3.7.000
2026-05-03 15:31:15 BOARDING0-56
2026-05-03 15:32:19 BCN LIGHTS ON0-56
2026-05-03 15:32:20 NAV LIGHTS ON0-56
2026-05-03 15:32:21 STB LIGHTS ON0-56
2026-05-03 15:33:16 STARTING ENGINE 10-56
2026-05-03 15:34:48 TAXI LIGHTS ON0-56
2026-05-03 15:34:49 LND LIGHTS ON0-56
2026-05-03 15:35:17 STARTING ENGINE 20-56
2026-05-03 15:36:20 TAXI TO THE RWY0-56
2026-05-03 15:37:17 FLAP 50%2-58
2026-05-03 15:37:47 CLIMBING104-28
2026-05-03 15:37:55 GEAR UP108131
2026-05-03 15:38:02 CRUISE113333
2026-05-03 15:38:04 CLIMBING116346
2026-05-03 15:38:04 FLAP 0%116351
2026-05-03 15:38:35 AP ENGAGED1401064
2026-05-03 15:39:18 CRUISE1531998
2026-05-03 15:45:29 LANDING2071386
2026-05-03 15:48:23 CLIMBING177168
2026-05-03 15:48:46 CRUISE162438
2026-05-03 15:49:17 CLIMBING134576
2026-05-03 15:49:21 CRUISE131601
2026-05-03 15:49:39 CLIMBING124688
2026-05-03 15:49:41 AP DISENGAGED124707
2026-05-03 15:49:49 CRUISE123747
2026-05-03 15:49:53 LANDING127754
2026-05-03 15:49:55 FLAP 50%129740
2026-05-03 15:49:55 GEAR DOWN130734
2026-05-03 15:50:22 FLAP 100%120330
2026-05-03 15:51:01 LANDED AIRPORT [MYCA]80-57
2026-05-03 15:51:01 LANDED - VS: -56 ft/min78-58
2026-05-03 15:51:01 LANDING WITH INCORRECT QNH - SET:1013 LOCAL: 101678-58
2026-05-03 15:51:18 TAXI TO THE GATE29-69
2026-05-03 15:52:02 AT THE GATE0-69
2026-05-03 15:53:05 NAV LIGHTS OFF0-69
2026-05-03 15:53:10 TAXI LIGHTS OFF0-69
2026-05-03 15:53:12 LND LIGHTS OFF0-69
2026-05-03 15:53:17 STOPPING ENGINE 20-69
2026-05-03 15:53:19 STOPPING ENGINE 10-69
2026-05-03 15:53:33 STB LIGHTS OFF0-69
2026-05-03 15:53:33 FLIGHT FINISHED0-69
2026-05-03 15:31:15 GOLD ACARS VERSION 3.3.7.000
2026-05-03 15:31:15 BOARDING0-56
2026-05-03 15:32:19 BCN LIGHTS ON0-56
2026-05-03 15:32:20 NAV LIGHTS ON0-56
2026-05-03 15:32:21 STB LIGHTS ON0-56
2026-05-03 15:33:16 STARTING ENGINE 10-56
2026-05-03 15:34:48 TAXI LIGHTS ON0-56
2026-05-03 15:34:49 LND LIGHTS ON0-56
2026-05-03 15:35:17 STARTING ENGINE 20-56
2026-05-03 15:36:20 TAXI TO THE RWY0-56
2026-05-03 15:37:17 FLAP 50%2-58
2026-05-03 15:37:47 CLIMBING104-28
2026-05-03 15:37:55 GEAR UP108131
2026-05-03 15:38:02 CRUISE113333
2026-05-03 15:38:04 CLIMBING116346
2026-05-03 15:38:04 FLAP 0%116351
2026-05-03 15:38:35 AP ENGAGED1401064
2026-05-03 15:39:18 CRUISE1531998
2026-05-03 15:45:29 LANDING2071386
2026-05-03 15:48:23 CLIMBING177168
2026-05-03 15:48:46 CRUISE162438
2026-05-03 15:49:17 CLIMBING134576
2026-05-03 15:49:21 CRUISE131601
2026-05-03 15:49:39 CLIMBING124688
2026-05-03 15:49:41 AP DISENGAGED124707
2026-05-03 15:49:49 CRUISE123747
2026-05-03 15:49:53 LANDING127754
2026-05-03 15:49:55 FLAP 50%129740
2026-05-03 15:49:55 GEAR DOWN130734
2026-05-03 15:50:22 FLAP 100%120330
2026-05-03 15:51:01 LANDED AIRPORT [MYCA]80-57
2026-05-03 15:51:01 LANDED - VS: -56 ft/min78-58
2026-05-03 15:51:01 LANDING WITH INCORRECT QNH - SET:1013 LOCAL: 101678-58
2026-05-03 15:51:18 TAXI TO THE GATE29-69
2026-05-03 15:52:02 AT THE GATE0-69
2026-05-03 15:53:05 NAV LIGHTS OFF0-69
2026-05-03 15:53:10 TAXI LIGHTS OFF0-69
2026-05-03 15:53:12 LND LIGHTS OFF0-69
2026-05-03 15:53:17 STOPPING ENGINE 20-69
2026-05-03 15:53:19 STOPPING ENGINE 10-69
2026-05-03 15:53:33 STB LIGHTS OFF0-69
2026-05-03 15:53:33 FLIGHT FINISHED0-69
2026-05-03 15:31:15 GOLD ACARS VERSION 3.3.7.000
2026-05-03 15:31:15 BOARDING0-56
2026-05-03 15:32:19 BCN LIGHTS ON0-56
2026-05-03 15:32:20 NAV LIGHTS ON0-56
2026-05-03 15:32:21 STB LIGHTS ON0-56
2026-05-03 15:33:16 STARTING ENGINE 10-56
2026-05-03 15:34:48 TAXI LIGHTS ON0-56
2026-05-03 15:34:49 LND LIGHTS ON0-56
2026-05-03 15:35:17 STARTING ENGINE 20-56
2026-05-03 15:36:20 TAXI TO THE RWY0-56
2026-05-03 15:37:17 FLAP 50%2-58
2026-05-03 15:37:47 CLIMBING104-28
2026-05-03 15:37:55 GEAR UP108131
2026-05-03 15:38:02 CRUISE113333
2026-05-03 15:38:04 CLIMBING116346
2026-05-03 15:38:04 FLAP 0%116351
2026-05-03 15:38:35 AP ENGAGED1401064
2026-05-03 15:39:18 CRUISE1531998
2026-05-03 15:45:29 LANDING2071386
2026-05-03 15:48:23 CLIMBING177168
2026-05-03 15:48:46 CRUISE162438
2026-05-03 15:49:17 CLIMBING134576
2026-05-03 15:49:21 CRUISE131601
2026-05-03 15:49:39 CLIMBING124688
2026-05-03 15:49:41 AP DISENGAGED124707
2026-05-03 15:49:49 CRUISE123747
2026-05-03 15:49:53 LANDING127754
2026-05-03 15:49:55 FLAP 50%129740
2026-05-03 15:49:55 GEAR DOWN130734
2026-05-03 15:50:22 FLAP 100%120330
2026-05-03 15:51:01 LANDED AIRPORT [MYCA]80-57
2026-05-03 15:51:01 LANDED - VS: -56 ft/min78-58
2026-05-03 15:51:01 LANDING WITH INCORRECT QNH - SET:1013 LOCAL: 101678-58
2026-05-03 15:51:18 TAXI TO THE GATE29-69
2026-05-03 15:52:02 AT THE GATE0-69
2026-05-03 15:53:05 NAV LIGHTS OFF0-69
2026-05-03 15:53:10 TAXI LIGHTS OFF0-69
2026-05-03 15:53:12 LND LIGHTS OFF0-69
2026-05-03 15:53:17 STOPPING ENGINE 20-69
2026-05-03 15:53:19 STOPPING ENGINE 10-69
2026-05-03 15:53:33 STB LIGHTS OFF0-69
2026-05-03 15:53:33 FLIGHT FINISHED0-69
2026-05-03 15:31:15 GOLD ACARS VERSION 3.3.7.000
2026-05-03 15:31:15 BOARDING0-56
2026-05-03 15:32:19 BCN LIGHTS ON0-56
2026-05-03 15:32:20 NAV LIGHTS ON0-56
2026-05-03 15:32:21 STB LIGHTS ON0-56
2026-05-03 15:33:16 STARTING ENGINE 10-56
2026-05-03 15:34:48 TAXI LIGHTS ON0-56
2026-05-03 15:34:49 LND LIGHTS ON0-56
2026-05-03 15:35:17 STARTING ENGINE 20-56
2026-05-03 15:36:20 TAXI TO THE RWY0-56
2026-05-03 15:37:17 FLAP 50%2-58
2026-05-03 15:37:47 CLIMBING104-28
2026-05-03 15:37:55 GEAR UP108131
2026-05-03 15:38:02 CRUISE113333
2026-05-03 15:38:04 CLIMBING116346
2026-05-03 15:38:04 FLAP 0%116351
2026-05-03 15:38:35 AP ENGAGED1401064
2026-05-03 15:39:18 CRUISE1531998
2026-05-03 15:45:29 LANDING2071386
2026-05-03 15:48:23 CLIMBING177168
2026-05-03 15:48:46 CRUISE162438
2026-05-03 15:49:17 CLIMBING134576
2026-05-03 15:49:21 CRUISE131601
2026-05-03 15:49:39 CLIMBING124688
2026-05-03 15:49:41 AP DISENGAGED124707
2026-05-03 15:49:49 CRUISE123747
2026-05-03 15:49:53 LANDING127754
2026-05-03 15:49:55 FLAP 50%129740
2026-05-03 15:49:55 GEAR DOWN130734
2026-05-03 15:50:22 FLAP 100%120330
2026-05-03 15:51:01 LANDED AIRPORT [MYCA]80-57
2026-05-03 15:51:01 LANDED - VS: -56 ft/min78-58
2026-05-03 15:51:01 LANDING WITH INCORRECT QNH - SET:1013 LOCAL: 101678-58
2026-05-03 15:51:18 TAXI TO THE GATE29-69
2026-05-03 15:52:02 AT THE GATE0-69
2026-05-03 15:53:05 NAV LIGHTS OFF0-69
2026-05-03 15:53:10 TAXI LIGHTS OFF0-69
2026-05-03 15:53:12 LND LIGHTS OFF0-69
2026-05-03 15:53:17 STOPPING ENGINE 20-69
2026-05-03 15:53:19 STOPPING ENGINE 10-69
2026-05-03 15:53:33 STB LIGHTS OFF0-69
2026-05-03 15:53:33 FLIGHT FINISHED0-69
2026-05-03 15:31:15 GOLD ACARS VERSION 3.3.7.000
2026-05-03 15:31:15 BOARDING0-56
2026-05-03 15:32:19 BCN LIGHTS ON0-56
2026-05-03 15:32:20 NAV LIGHTS ON0-56
2026-05-03 15:32:21 STB LIGHTS ON0-56
2026-05-03 15:33:16 STARTING ENGINE 10-56
2026-05-03 15:34:48 TAXI LIGHTS ON0-56
2026-05-03 15:34:49 LND LIGHTS ON0-56
2026-05-03 15:35:17 STARTING ENGINE 20-56
2026-05-03 15:36:20 TAXI TO THE RWY0-56
2026-05-03 15:37:17 FLAP 50%2-58
2026-05-03 15:37:47 CLIMBING104-28
2026-05-03 15:37:55 GEAR UP108131
2026-05-03 15:38:02 CRUISE113333
2026-05-03 15:38:04 CLIMBING116346
2026-05-03 15:38:04 FLAP 0%116351
2026-05-03 15:38:35 AP ENGAGED1401064
2026-05-03 15:39:18 CRUISE1531998
2026-05-03 15:45:29 LANDING2071386
2026-05-03 15:48:23 CLIMBING177168
2026-05-03 15:48:46 CRUISE162438
2026-05-03 15:49:17 CLIMBING134576
2026-05-03 15:49:21 CRUISE131601
2026-05-03 15:49:39 CLIMBING124688
2026-05-03 15:49:41 AP DISENGAGED124707
2026-05-03 15:49:49 CRUISE123747
2026-05-03 15:49:53 LANDING127754
2026-05-03 15:49:55 FLAP 50%129740
2026-05-03 15:49:55 GEAR DOWN130734
2026-05-03 15:50:22 FLAP 100%120330
2026-05-03 15:51:01 LANDED AIRPORT [MYCA]80-57
2026-05-03 15:51:01 LANDED - VS: -56 ft/min78-58
2026-05-03 15:51:01 LANDING WITH INCORRECT QNH - SET:1013 LOCAL: 101678-58
2026-05-03 15:51:18 TAXI TO THE GATE29-69
2026-05-03 15:52:02 AT THE GATE0-69
2026-05-03 15:53:05 NAV LIGHTS OFF0-69
2026-05-03 15:53:10 TAXI LIGHTS OFF0-69
2026-05-03 15:53:12 LND LIGHTS OFF0-69
2026-05-03 15:53:17 STOPPING ENGINE 20-69
2026-05-03 15:53:19 STOPPING ENGINE 10-69
2026-05-03 15:53:33 STB LIGHTS OFF0-69
2026-05-03 15:53:33 FLIGHT FINISHED0-69
2026-05-03 15:31:15 GOLD ACARS VERSION 3.3.7.000
2026-05-03 15:31:15 BOARDING0-56
2026-05-03 15:32:19 BCN LIGHTS ON0-56
2026-05-03 15:32:20 NAV LIGHTS ON0-56
2026-05-03 15:32:21 STB LIGHTS ON0-56
2026-05-03 15:33:16 STARTING ENGINE 10-56
2026-05-03 15:34:48 TAXI LIGHTS ON0-56
2026-05-03 15:34:49 LND LIGHTS ON0-56
2026-05-03 15:35:17 STARTING ENGINE 20-56
2026-05-03 15:36:20 TAXI TO THE RWY0-56
2026-05-03 15:37:17 FLAP 50%2-58
2026-05-03 15:37:47 CLIMBING104-28
2026-05-03 15:37:55 GEAR UP108131
2026-05-03 15:38:02 CRUISE113333
2026-05-03 15:38:04 CLIMBING116346
2026-05-03 15:38:04 FLAP 0%116351
2026-05-03 15:38:35 AP ENGAGED1401064
2026-05-03 15:39:18 CRUISE1531998
2026-05-03 15:45:29 LANDING2071386
2026-05-03 15:48:23 CLIMBING177168
2026-05-03 15:48:46 CRUISE162438
2026-05-03 15:49:17 CLIMBING134576
2026-05-03 15:49:21 CRUISE131601
2026-05-03 15:49:39 CLIMBING124688
2026-05-03 15:49:41 AP DISENGAGED124707
2026-05-03 15:49:49 CRUISE123747
2026-05-03 15:49:53 LANDING127754
2026-05-03 15:49:55 FLAP 50%129740
2026-05-03 15:49:55 GEAR DOWN130734
2026-05-03 15:50:22 FLAP 100%120330
2026-05-03 15:51:01 LANDED AIRPORT [MYCA]80-57
2026-05-03 15:51:01 LANDED - VS: -56 ft/min78-58
2026-05-03 15:51:01 LANDING WITH INCORRECT QNH - SET:1013 LOCAL: 101678-58
2026-05-03 15:51:18 TAXI TO THE GATE29-69
2026-05-03 15:52:02 AT THE GATE0-69
2026-05-03 15:53:05 NAV LIGHTS OFF0-69
2026-05-03 15:53:10 TAXI LIGHTS OFF0-69
2026-05-03 15:53:12 LND LIGHTS OFF0-69
2026-05-03 15:53:17 STOPPING ENGINE 20-69
2026-05-03 15:53:19 STOPPING ENGINE 10-69
2026-05-03 15:53:33 STB LIGHTS OFF0-69
2026-05-03 15:53:33 FLIGHT FINISHED0-69
2026-05-03 15:31:15 GOLD ACARS VERSION 3.3.7.000
2026-05-03 15:31:15 BOARDING0-56
2026-05-03 15:32:19 BCN LIGHTS ON0-56
2026-05-03 15:32:20 NAV LIGHTS ON0-56
2026-05-03 15:32:21 STB LIGHTS ON0-56
2026-05-03 15:33:16 STARTING ENGINE 10-56
2026-05-03 15:34:48 TAXI LIGHTS ON0-56
2026-05-03 15:34:49 LND LIGHTS ON0-56
2026-05-03 15:35:17 STARTING ENGINE 20-56
2026-05-03 15:36:20 TAXI TO THE RWY0-56
2026-05-03 15:37:17 FLAP 50%2-58
2026-05-03 15:37:47 CLIMBING104-28
2026-05-03 15:37:55 GEAR UP108131
2026-05-03 15:38:02 CRUISE113333
2026-05-03 15:38:04 CLIMBING116346
2026-05-03 15:38:04 FLAP 0%116351
2026-05-03 15:38:35 AP ENGAGED1401064
2026-05-03 15:39:18 CRUISE1531998
2026-05-03 15:45:29 LANDING2071386
2026-05-03 15:48:23 CLIMBING177168
2026-05-03 15:48:46 CRUISE162438
2026-05-03 15:49:17 CLIMBING134576
2026-05-03 15:49:21 CRUISE131601
2026-05-03 15:49:39 CLIMBING124688
2026-05-03 15:49:41 AP DISENGAGED124707
2026-05-03 15:49:49 CRUISE123747
2026-05-03 15:49:53 LANDING127754
2026-05-03 15:49:55 FLAP 50%129740
2026-05-03 15:49:55 GEAR DOWN130734
2026-05-03 15:50:22 FLAP 100%120330
2026-05-03 15:51:01 LANDED AIRPORT [MYCA]80-57
2026-05-03 15:51:01 LANDED - VS: -56 ft/min78-58
2026-05-03 15:51:01 LANDING WITH INCORRECT QNH - SET:1013 LOCAL: 101678-58
2026-05-03 15:51:18 TAXI TO THE GATE29-69
2026-05-03 15:52:02 AT THE GATE0-69
2026-05-03 15:53:05 NAV LIGHTS OFF0-69
2026-05-03 15:53:10 TAXI LIGHTS OFF0-69
2026-05-03 15:53:12 LND LIGHTS OFF0-69
2026-05-03 15:53:17 STOPPING ENGINE 20-69
2026-05-03 15:53:19 STOPPING ENGINE 10-69
2026-05-03 15:53:33 STB LIGHTS OFF0-69
2026-05-03 15:53:33 FLIGHT FINISHED0-69
2026-05-03 15:31:15 GOLD ACARS VERSION 3.3.7.000
2026-05-03 15:31:15 BOARDING0-56
2026-05-03 15:32:19 BCN LIGHTS ON0-56
2026-05-03 15:32:20 NAV LIGHTS ON0-56
2026-05-03 15:32:21 STB LIGHTS ON0-56
2026-05-03 15:33:16 STARTING ENGINE 10-56
2026-05-03 15:34:48 TAXI LIGHTS ON0-56
2026-05-03 15:34:49 LND LIGHTS ON0-56
2026-05-03 15:35:17 STARTING ENGINE 20-56
2026-05-03 15:36:20 TAXI TO THE RWY0-56
2026-05-03 15:37:17 FLAP 50%2-58
2026-05-03 15:37:47 CLIMBING104-28
2026-05-03 15:37:55 GEAR UP108131
2026-05-03 15:38:02 CRUISE113333
2026-05-03 15:38:04 CLIMBING116346
2026-05-03 15:38:04 FLAP 0%116351
2026-05-03 15:38:35 AP ENGAGED1401064
2026-05-03 15:39:18 CRUISE1531998
2026-05-03 15:45:29 LANDING2071386
2026-05-03 15:48:23 CLIMBING177168
2026-05-03 15:48:46 CRUISE162438
2026-05-03 15:49:17 CLIMBING134576
2026-05-03 15:49:21 CRUISE131601
2026-05-03 15:49:39 CLIMBING124688
2026-05-03 15:49:41 AP DISENGAGED124707
2026-05-03 15:49:49 CRUISE123747
2026-05-03 15:49:53 LANDING127754
2026-05-03 15:49:55 FLAP 50%129740
2026-05-03 15:49:55 GEAR DOWN130734
2026-05-03 15:50:22 FLAP 100%120330
2026-05-03 15:51:01 LANDED AIRPORT [MYCA]80-57
2026-05-03 15:51:01 LANDED - VS: -56 ft/min78-58
2026-05-03 15:51:01 LANDING WITH INCORRECT QNH - SET:1013 LOCAL: 101678-58
2026-05-03 15:51:18 TAXI TO THE GATE29-69
2026-05-03 15:52:02 AT THE GATE0-69
2026-05-03 15:53:05 NAV LIGHTS OFF0-69
2026-05-03 15:53:10 TAXI LIGHTS OFF0-69
2026-05-03 15:53:12 LND LIGHTS OFF0-69
2026-05-03 15:53:17 STOPPING ENGINE 20-69
2026-05-03 15:53:19 STOPPING ENGINE 10-69
2026-05-03 15:53:33 STB LIGHTS OFF0-69
2026-05-03 15:53:33 FLIGHT FINISHED0-69
2026-05-03 15:31:15 GOLD ACARS VERSION 3.3.7.000
2026-05-03 15:31:15 BOARDING0-56
2026-05-03 15:32:19 BCN LIGHTS ON0-56
2026-05-03 15:32:20 NAV LIGHTS ON0-56
2026-05-03 15:32:21 STB LIGHTS ON0-56
2026-05-03 15:33:16 STARTING ENGINE 10-56
2026-05-03 15:34:48 TAXI LIGHTS ON0-56
2026-05-03 15:34:49 LND LIGHTS ON0-56
2026-05-03 15:35:17 STARTING ENGINE 20-56
2026-05-03 15:36:20 TAXI TO THE RWY0-56
2026-05-03 15:37:17 FLAP 50%2-58
2026-05-03 15:37:47 CLIMBING104-28
2026-05-03 15:37:55 GEAR UP108131
2026-05-03 15:38:02 CRUISE113333
2026-05-03 15:38:04 CLIMBING116346
2026-05-03 15:38:04 FLAP 0%116351
2026-05-03 15:38:35 AP ENGAGED1401064
2026-05-03 15:39:18 CRUISE1531998
2026-05-03 15:45:29 LANDING2071386
2026-05-03 15:48:23 CLIMBING177168
2026-05-03 15:48:46 CRUISE162438
2026-05-03 15:49:17 CLIMBING134576
2026-05-03 15:49:21 CRUISE131601
2026-05-03 15:49:39 CLIMBING124688
2026-05-03 15:49:41 AP DISENGAGED124707
2026-05-03 15:49:49 CRUISE123747
2026-05-03 15:49:53 LANDING127754
2026-05-03 15:49:55 FLAP 50%129740
2026-05-03 15:49:55 GEAR DOWN130734
2026-05-03 15:50:22 FLAP 100%120330
2026-05-03 15:51:01 LANDED AIRPORT [MYCA]80-57
2026-05-03 15:51:01 LANDED - VS: -56 ft/min78-58
2026-05-03 15:51:01 LANDING WITH INCORRECT QNH - SET:1013 LOCAL: 101678-58
2026-05-03 15:51:18 TAXI TO THE GATE29-69
2026-05-03 15:52:02 AT THE GATE0-69
2026-05-03 15:53:05 NAV LIGHTS OFF0-69
2026-05-03 15:53:10 TAXI LIGHTS OFF0-69
2026-05-03 15:53:12 LND LIGHTS OFF0-69
2026-05-03 15:53:17 STOPPING ENGINE 20-69
2026-05-03 15:53:19 STOPPING ENGINE 10-69
2026-05-03 15:53:33 STB LIGHTS OFF0-69
2026-05-03 15:53:33 FLIGHT FINISHED0-69

 ACARS DATA

DATEIASGSALTITUDEFUEL USED OATFlight Phase
2026-05-03 15:33:1600-56026BOARDING
2026-05-03 15:34:1600-56026BOARDING
2026-05-03 15:35:1700-56126BOARDING
2026-05-03 15:36:1800-56126BOARDING
2026-05-03 15:37:1804-57126BOARDING
2026-05-03 15:38:19126125731325TAXI TO THE RWY
2026-05-03 15:39:201561652000522CLIMBING
2026-05-03 15:40:201942052009722CRUISE
2026-05-03 15:41:211952062006922CRUISE
2026-05-03 15:42:2119520620091122CRUISE
2026-05-03 15:43:2219120320041222CRUISE
2026-05-03 15:44:2219020120001422CRUISE
2026-05-03 15:45:2320621514461623CRUISE
2026-05-03 15:46:231932048461724CRUISE
2026-05-03 15:47:241841914151926LANDING
2026-05-03 15:48:251761811942126LANDING
2026-05-03 15:49:251301326172225CLIMBING
2026-05-03 15:50:261171183032226CRUISE
2026-05-03 15:51:261823-692326LANDING
2026-05-03 15:52:2700-692326TAXI TO THE GATE
2026-05-03 15:53:2800-692326AT THE GATE
2026-05-03 16:00:3200-74-7527AT THE GATE